sensor_id;sensor_type;location;lat;lon;timestamp;P1;durP1;ratioP1;P2;durP2;ratioP2
11535;SDS011;5824;49.336;8.652;2024-01-30T00:01:02;18.73;;;10.27;;
11535;SDS011;5824;49.336;8.652;2024-01-30T00:03:28;15.33;;;10.10;;
11535;SDS011;5824;49.336;8.652;2024-01-30T00:05:54;17.33;;;10.57;;
11535;SDS011;5824;49.336;8.652;2024-01-30T00:08:20;16.30;;;10.13;;
11535;SDS011;5824;49.336;8.652;2024-01-30T00:10:45;18.60;;;10.80;;
11535;SDS011;5824;49.336;8.652;2024-01-30T00:13:11;18.50;;;10.50;;
11535;SDS011;5824;49.336;8.652;2024-01-30T00:15:38;19.53;;;10.37;;
11535;SDS011;5824;49.336;8.652;2024-01-30T00:18:04;16.40;;;10.20;;
11535;SDS011;5824;49.336;8.652;2024-01-30T00:20:29;17.60;;;10.03;;
11535;SDS011;5824;49.336;8.652;2024-01-30T00:22:55;18.17;;;9.83;;
11535;SDS011;5824;49.336;8.652;2024-01-30T00:25:20;18.60;;;10.80;;
11535;SDS011;5824;49.336;8.652;2024-01-30T00:27:46;16.00;;;9.77;;
11535;SDS011;5824;49.336;8.652;2024-01-30T00:30:12;21.43;;;10.20;;
11535;SDS011;5824;49.336;8.652;2024-01-30T00:32:37;22.63;;;10.17;;
11535;SDS011;5824;49.336;8.652;2024-01-30T00:35:03;14.37;;;9.70;;
11535;SDS011;5824;49.336;8.652;2024-01-30T00:37:29;15.80;;;9.20;;
11535;SDS011;5824;49.336;8.652;2024-01-30T00:39:54;19.17;;;10.33;;
11535;SDS011;5824;49.336;8.652;2024-01-30T00:42:20;16.70;;;9.77;;
11535;SDS011;5824;49.336;8.652;2024-01-30T00:44:46;15.97;;;10.23;;
11535;SDS011;5824;49.336;8.652;2024-01-30T00:47:11;13.93;;;9.00;;
11535;SDS011;5824;49.336;8.652;2024-01-30T00:49:37;14.90;;;8.80;;
11535;SDS011;5824;49.336;8.652;2024-01-30T00:52:02;20.53;;;10.33;;
11535;SDS011;5824;49.336;8.652;2024-01-30T00:54:28;16.50;;;10.00;;
11535;SDS011;5824;49.336;8.652;2024-01-30T00:56:54;18.50;;;10.10;;
11535;SDS011;5824;49.336;8.652;2024-01-30T00:59:19;19.97;;;11.03;;
11535;SDS011;5824;49.336;8.652;2024-01-30T01:01:45;18.63;;;10.70;;
11535;SDS011;5824;49.336;8.652;2024-01-30T01:04:10;16.80;;;10.60;;
11535;SDS011;5824;49.336;8.652;2024-01-30T01:06:36;19.40;;;9.90;;
11535;SDS011;5824;49.336;8.652;2024-01-30T01:09:01;13.93;;;9.63;;
11535;SDS011;5824;49.336;8.652;2024-01-30T01:11:28;18.70;;;9.93;;
11535;SDS011;5824;49.336;8.652;2024-01-30T01:13:54;18.30;;;9.93;;
11535;SDS011;5824;49.336;8.652;2024-01-30T01:16:19;17.37;;;10.40;;
11535;SDS011;5824;49.336;8.652;2024-01-30T01:18:45;18.30;;;9.57;;
11535;SDS011;5824;49.336;8.652;2024-01-30T01:21:10;13.47;;;9.20;;
11535;SDS011;5824;49.336;8.652;2024-01-30T01:23:36;15.07;;;9.70;;
11535;SDS011;5824;49.336;8.652;2024-01-30T01:26:02;13.00;;;8.20;;
11535;SDS011;5824;49.336;8.652;2024-01-30T01:28:27;14.80;;;7.70;;
11535;SDS011;5824;49.336;8.652;2024-01-30T01:30:53;16.53;;;9.20;;
11535;SDS011;5824;49.336;8.652;2024-01-30T01:33:18;19.53;;;7.97;;
11535;SDS011;5824;49.336;8.652;2024-01-30T01:35:44;13.20;;;8.37;;
11535;SDS011;5824;49.336;8.652;2024-01-30T01:38:10;15.60;;;8.70;;
11535;SDS011;5824;49.336;8.652;2024-01-30T01:40:36;14.47;;;8.80;;
11535;SDS011;5824;49.336;8.652;2024-01-30T01:43:03;14.27;;;8.23;;
11535;SDS011;5824;49.336;8.652;2024-01-30T01:45:30;18.43;;;9.40;;
11535;SDS011;5824;49.336;8.652;2024-01-30T01:47:55;13.60;;;8.43;;
11535;SDS011;5824;49.336;8.652;2024-01-30T01:50:21;16.80;;;9.00;;
11535;SDS011;5824;49.336;8.652;2024-01-30T01:52:47;21.33;;;9.70;;
11535;SDS011;5824;49.336;8.652;2024-01-30T01:55:14;17.20;;;9.20;;
11535;SDS011;5824;49.336;8.652;2024-01-30T01:57:41;15.00;;;8.50;;
11535;SDS011;5824;49.336;8.652;2024-01-30T02:00:07;14.53;;;8.77;;
11535;SDS011;5824;49.336;8.652;2024-01-30T02:02:35;15.60;;;7.97;;
11535;SDS011;5824;49.336;8.652;2024-01-30T02:05:01;13.57;;;7.60;;
11535;SDS011;5824;49.336;8.652;2024-01-30T02:07:27;13.40;;;8.00;;
11535;SDS011;5824;49.336;8.652;2024-01-30T02:09:53;19.67;;;8.97;;
11535;SDS011;5824;49.336;8.652;2024-01-30T02:12:19;14.00;;;8.13;;
11535;SDS011;5824;49.336;8.652;2024-01-30T02:14:48;15.80;;;8.43;;
11535;SDS011;5824;49.336;8.652;2024-01-30T02:17:16;17.67;;;8.53;;
11535;SDS011;5824;49.336;8.652;2024-01-30T02:19:42;14.80;;;8.97;;
11535;SDS011;5824;49.336;8.652;2024-01-30T02:22:07;14.53;;;8.17;;
11535;SDS011;5824;49.336;8.652;2024-01-30T02:24:34;11.90;;;8.00;;
11535;SDS011;5824;49.336;8.652;2024-01-30T02:26:59;14.90;;;8.07;;
11535;SDS011;5824;49.336;8.652;2024-01-30T02:29:25;13.37;;;7.50;;
11535;SDS011;5824;49.336;8.652;2024-01-30T02:31:50;11.83;;;7.53;;
11535;SDS011;5824;49.336;8.652;2024-01-30T02:34:17;13.93;;;7.43;;
11535;SDS011;5824;49.336;8.652;2024-01-30T02:36:44;12.90;;;7.40;;
11535;SDS011;5824;49.336;8.652;2024-01-30T02:39:09;11.47;;;7.70;;
11535;SDS011;5824;49.336;8.652;2024-01-30T02:41:35;10.10;;;7.00;;
11535;SDS011;5824;49.336;8.652;2024-01-30T02:44:01;13.50;;;7.40;;
11535;SDS011;5824;49.336;8.652;2024-01-30T02:46:27;11.40;;;7.30;;
11535;SDS011;5824;49.336;8.652;2024-01-30T02:48:53;12.17;;;6.57;;
11535;SDS011;5824;49.336;8.652;2024-01-30T02:51:18;12.63;;;7.00;;
11535;SDS011;5824;49.336;8.652;2024-01-30T02:53:44;13.67;;;7.17;;
11535;SDS011;5824;49.336;8.652;2024-01-30T02:56:09;12.03;;;7.10;;
11535;SDS011;5824;49.336;8.652;2024-01-30T02:58:35;11.23;;;6.30;;
11535;SDS011;5824;49.336;8.652;2024-01-30T03:01:02;11.00;;;6.50;;
11535;SDS011;5824;49.336;8.652;2024-01-30T03:03:28;10.10;;;6.50;;
11535;SDS011;5824;49.336;8.652;2024-01-30T03:05:53;10.00;;;6.30;;
11535;SDS011;5824;49.336;8.652;2024-01-30T03:08:19;9.20;;;6.13;;
11535;SDS011;5824;49.336;8.652;2024-01-30T03:10:44;10.83;;;6.70;;
11535;SDS011;5824;49.336;8.652;2024-01-30T03:13:10;10.87;;;6.30;;
11535;SDS011;5824;49.336;8.652;2024-01-30T03:15:36;8.67;;;5.97;;
11535;SDS011;5824;49.336;8.652;2024-01-30T03:18:02;10.87;;;6.83;;
11535;SDS011;5824;49.336;8.652;2024-01-30T03:20:28;10.70;;;6.90;;
11535;SDS011;5824;49.336;8.652;2024-01-30T03:22:54;8.77;;;5.90;;
11535;SDS011;5824;49.336;8.652;2024-01-30T03:25:20;8.73;;;6.47;;
11535;SDS011;5824;49.336;8.652;2024-01-30T03:27:46;12.37;;;6.90;;
11535;SDS011;5824;49.336;8.652;2024-01-30T03:30:11;9.87;;;6.70;;
11535;SDS011;5824;49.336;8.652;2024-01-30T03:32:37;11.37;;;6.30;;
11535;SDS011;5824;49.336;8.652;2024-01-30T03:35:02;9.50;;;6.13;;
11535;SDS011;5824;49.336;8.652;2024-01-30T03:37:28;12.63;;;6.13;;
11535;SDS011;5824;49.336;8.652;2024-01-30T03:39:54;9.63;;;5.40;;
11535;SDS011;5824;49.336;8.652;2024-01-30T03:42:20;9.33;;;6.30;;
11535;SDS011;5824;49.336;8.652;2024-01-30T03:44:45;10.53;;;6.13;;
11535;SDS011;5824;49.336;8.652;2024-01-30T03:47:11;9.23;;;5.77;;
11535;SDS011;5824;49.336;8.652;2024-01-30T03:49:36;13.03;;;6.53;;
11535;SDS011;5824;49.336;8.652;2024-01-30T03:52:02;11.93;;;6.50;;
11535;SDS011;5824;49.336;8.652;2024-01-30T03:54:27;9.97;;;6.40;;
11535;SDS011;5824;49.336;8.652;2024-01-30T03:56:53;9.90;;;6.13;;
11535;SDS011;5824;49.336;8.652;2024-01-30T03:59:19;11.20;;;6.37;;
11535;SDS011;5824;49.336;8.652;2024-01-30T04:01:48;10.47;;;6.40;;
11535;SDS011;5824;49.336;8.652;2024-01-30T04:04:17;9.50;;;6.33;;
11535;SDS011;5824;49.336;8.652;2024-01-30T04:06:44;10.60;;;5.70;;
11535;SDS011;5824;49.336;8.652;2024-01-30T04:09:10;10.47;;;6.70;;
11535;SDS011;5824;49.336;8.652;2024-01-30T04:11:38;8.23;;;6.20;;
11535;SDS011;5824;49.336;8.652;2024-01-30T04:14:03;12.80;;;6.83;;
11535;SDS011;5824;49.336;8.652;2024-01-30T04:16:29;12.20;;;6.43;;
11535;SDS011;5824;49.336;8.652;2024-01-30T04:18:54;9.07;;;5.90;;
11535;SDS011;5824;49.336;8.652;2024-01-30T04:21:20;9.23;;;5.80;;
11535;SDS011;5824;49.336;8.652;2024-01-30T04:23:47;11.07;;;6.30;;
11535;SDS011;5824;49.336;8.652;2024-01-30T04:26:13;11.07;;;7.00;;
11535;SDS011;5824;49.336;8.652;2024-01-30T04:28:40;9.60;;;5.87;;
11535;SDS011;5824;49.336;8.652;2024-01-30T04:31:06;9.30;;;6.03;;
11535;SDS011;5824;49.336;8.652;2024-01-30T04:33:32;9.60;;;5.90;;
11535;SDS011;5824;49.336;8.652;2024-01-30T04:35:57;10.83;;;6.70;;
11535;SDS011;5824;49.336;8.652;2024-01-30T04:38:23;10.03;;;6.03;;
11535;SDS011;5824;49.336;8.652;2024-01-30T04:40:49;9.67;;;6.50;;
11535;SDS011;5824;49.336;8.652;2024-01-30T04:43:14;8.10;;;6.90;;
11535;SDS011;5824;49.336;8.652;2024-01-30T04:45:40;10.57;;;6.17;;
11535;SDS011;5824;49.336;8.652;2024-01-30T04:48:06;8.93;;;6.00;;
11535;SDS011;5824;49.336;8.652;2024-01-30T04:50:32;10.00;;;5.90;;
11535;SDS011;5824;49.336;8.652;2024-01-30T04:52:57;9.00;;;6.20;;
11535;SDS011;5824;49.336;8.652;2024-01-30T04:55:23;9.63;;;6.40;;
11535;SDS011;5824;49.336;8.652;2024-01-30T04:57:49;11.80;;;6.03;;
11535;SDS011;5824;49.336;8.652;2024-01-30T05:00:14;11.10;;;6.30;;
11535;SDS011;5824;49.336;8.652;2024-01-30T05:02:40;7.53;;;5.70;;
11535;SDS011;5824;49.336;8.652;2024-01-30T05:05:06;11.73;;;6.20;;
11535;SDS011;5824;49.336;8.652;2024-01-30T05:07:32;10.70;;;6.30;;
11535;SDS011;5824;49.336;8.652;2024-01-30T05:09:59;11.47;;;6.40;;
11535;SDS011;5824;49.336;8.652;2024-01-30T05:12:24;9.63;;;6.10;;
11535;SDS011;5824;49.336;8.652;2024-01-30T05:14:50;10.53;;;7.00;;
11535;SDS011;5824;49.336;8.652;2024-01-30T05:17:16;16.30;;;7.63;;
11535;SDS011;5824;49.336;8.652;2024-01-30T05:19:42;10.77;;;6.50;;
11535;SDS011;5824;49.336;8.652;2024-01-30T05:22:08;9.30;;;6.27;;
11535;SDS011;5824;49.336;8.652;2024-01-30T05:24:35;9.17;;;6.37;;
11535;SDS011;5824;49.336;8.652;2024-01-30T05:27:01;11.07;;;6.80;;
11535;SDS011;5824;49.336;8.652;2024-01-30T05:29:27;11.00;;;6.40;;
11535;SDS011;5824;49.336;8.652;2024-01-30T05:31:53;12.00;;;6.80;;
11535;SDS011;5824;49.336;8.652;2024-01-30T05:34:18;11.13;;;6.17;;
11535;SDS011;5824;49.336;8.652;2024-01-30T05:36:44;9.40;;;6.03;;
11535;SDS011;5824;49.336;8.652;2024-01-30T05:39:09;12.17;;;6.90;;
11535;SDS011;5824;49.336;8.652;2024-01-30T05:41:35;9.77;;;6.80;;
11535;SDS011;5824;49.336;8.652;2024-01-30T05:44:01;11.33;;;7.07;;
11535;SDS011;5824;49.336;8.652;2024-01-30T05:46:26;12.33;;;6.90;;
11535;SDS011;5824;49.336;8.652;2024-01-30T05:48:52;11.83;;;7.50;;
11535;SDS011;5824;49.336;8.652;2024-01-30T05:51:18;10.13;;;6.47;;
11535;SDS011;5824;49.336;8.652;2024-01-30T05:53:43;12.10;;;7.37;;
11535;SDS011;5824;49.336;8.652;2024-01-30T05:56:09;17.23;;;6.80;;
11535;SDS011;5824;49.336;8.652;2024-01-30T05:58:34;12.03;;;6.90;;
11535;SDS011;5824;49.336;8.652;2024-01-30T06:01:00;11.00;;;5.93;;
11535;SDS011;5824;49.336;8.652;2024-01-30T06:03:25;11.10;;;6.60;;
11535;SDS011;5824;49.336;8.652;2024-01-30T06:05:51;12.33;;;7.30;;
11535;SDS011;5824;49.336;8.652;2024-01-30T06:08:17;9.93;;;6.37;;
11535;SDS011;5824;49.336;8.652;2024-01-30T06:10:43;12.13;;;6.97;;
11535;SDS011;5824;49.336;8.652;2024-01-30T06:13:08;9.80;;;6.07;;
11535;SDS011;5824;49.336;8.652;2024-01-30T06:15:34;12.03;;;7.13;;
11535;SDS011;5824;49.336;8.652;2024-01-30T06:17:59;11.83;;;7.00;;
11535;SDS011;5824;49.336;8.652;2024-01-30T06:20:25;12.23;;;7.40;;
11535;SDS011;5824;49.336;8.652;2024-01-30T06:22:50;12.57;;;7.63;;
11535;SDS011;5824;49.336;8.652;2024-01-30T06:25:15;11.57;;;7.00;;
11535;SDS011;5824;49.336;8.652;2024-01-30T06:27:41;11.50;;;7.30;;
11535;SDS011;5824;49.336;8.652;2024-01-30T06:30:07;12.63;;;7.67;;
11535;SDS011;5824;49.336;8.652;2024-01-30T06:32:33;13.80;;;6.70;;
11535;SDS011;5824;49.336;8.652;2024-01-30T06:35:00;12.27;;;7.17;;
11535;SDS011;5824;49.336;8.652;2024-01-30T06:37:26;11.30;;;7.03;;
11535;SDS011;5824;49.336;8.652;2024-01-30T06:39:52;10.83;;;7.00;;
11535;SDS011;5824;49.336;8.652;2024-01-30T06:42:18;13.00;;;7.70;;
11535;SDS011;5824;49.336;8.652;2024-01-30T06:44:44;14.23;;;8.33;;
11535;SDS011;5824;49.336;8.652;2024-01-30T06:47:09;15.40;;;7.97;;
11535;SDS011;5824;49.336;8.652;2024-01-30T06:49:35;11.80;;;7.10;;
11535;SDS011;5824;49.336;8.652;2024-01-30T06:52:04;13.07;;;8.33;;
11535;SDS011;5824;49.336;8.652;2024-01-30T06:54:30;12.47;;;7.03;;
11535;SDS011;5824;49.336;8.652;2024-01-30T06:56:56;13.90;;;8.50;;
11535;SDS011;5824;49.336;8.652;2024-01-30T06:59:21;13.50;;;7.70;;
11535;SDS011;5824;49.336;8.652;2024-01-30T07:01:47;9.90;;;6.90;;
11535;SDS011;5824;49.336;8.652;2024-01-30T07:04:13;12.47;;;7.50;;
11535;SDS011;5824;49.336;8.652;2024-01-30T07:06:38;11.23;;;7.60;;
11535;SDS011;5824;49.336;8.652;2024-01-30T07:09:04;14.10;;;7.57;;
11535;SDS011;5824;49.336;8.652;2024-01-30T07:11:30;16.63;;;8.10;;
11535;SDS011;5824;49.336;8.652;2024-01-30T07:13:56;11.13;;;7.73;;
11535;SDS011;5824;49.336;8.652;2024-01-30T07:16:21;12.73;;;7.57;;
11535;SDS011;5824;49.336;8.652;2024-01-30T07:18:48;12.80;;;6.83;;
11535;SDS011;5824;49.336;8.652;2024-01-30T07:21:14;15.60;;;7.53;;
11535;SDS011;5824;49.336;8.652;2024-01-30T07:23:40;16.57;;;8.27;;
11535;SDS011;5824;49.336;8.652;2024-01-30T07:26:06;14.40;;;7.83;;
11535;SDS011;5824;49.336;8.652;2024-01-30T07:28:33;14.93;;;8.50;;
11535;SDS011;5824;49.336;8.652;2024-01-30T07:30:59;10.13;;;7.00;;
11535;SDS011;5824;49.336;8.652;2024-01-30T07:33:25;12.40;;;8.00;;
11535;SDS011;5824;49.336;8.652;2024-01-30T07:35:54;11.77;;;7.20;;
11535;SDS011;5824;49.336;8.652;2024-01-30T07:38:19;11.60;;;7.50;;
11535;SDS011;5824;49.336;8.652;2024-01-30T07:40:45;12.07;;;7.53;;
11535;SDS011;5824;49.336;8.652;2024-01-30T07:43:11;14.50;;;7.53;;
11535;SDS011;5824;49.336;8.652;2024-01-30T07:45:36;15.50;;;7.77;;
11535;SDS011;5824;49.336;8.652;2024-01-30T07:48:03;13.90;;;7.73;;
11535;SDS011;5824;49.336;8.652;2024-01-30T07:50:30;20.20;;;10.20;;
11535;SDS011;5824;49.336;8.652;2024-01-30T07:52:56;14.47;;;7.37;;
11535;SDS011;5824;49.336;8.652;2024-01-30T07:55:22;16.00;;;7.70;;
11535;SDS011;5824;49.336;8.652;2024-01-30T07:57:53;14.43;;;8.03;;
11535;SDS011;5824;49.336;8.652;2024-01-30T08:00:20;11.07;;;7.30;;
11535;SDS011;5824;49.336;8.652;2024-01-30T08:02:46;10.40;;;7.17;;
11535;SDS011;5824;49.336;8.652;2024-01-30T08:05:12;11.87;;;7.97;;
11535;SDS011;5824;49.336;8.652;2024-01-30T08:07:40;17.63;;;8.10;;
11535;SDS011;5824;49.336;8.652;2024-01-30T08:10:08;12.00;;;7.00;;
11535;SDS011;5824;49.336;8.652;2024-01-30T08:12:35;14.33;;;7.60;;
11535;SDS011;5824;49.336;8.652;2024-01-30T08:15:00;10.57;;;7.03;;
11535;SDS011;5824;49.336;8.652;2024-01-30T08:17:26;15.97;;;7.30;;
11535;SDS011;5824;49.336;8.652;2024-01-30T08:19:51;10.67;;;7.57;;
11535;SDS011;5824;49.336;8.652;2024-01-30T08:22:17;11.00;;;7.47;;
11535;SDS011;5824;49.336;8.652;2024-01-30T08:24:42;13.40;;;7.60;;
11535;SDS011;5824;49.336;8.652;2024-01-30T08:27:08;13.00;;;7.40;;
11535;SDS011;5824;49.336;8.652;2024-01-30T08:29:37;11.10;;;7.23;;
11535;SDS011;5824;49.336;8.652;2024-01-30T08:32:03;11.20;;;7.70;;
11535;SDS011;5824;49.336;8.652;2024-01-30T08:34:31;13.80;;;8.33;;
11535;SDS011;5824;49.336;8.652;2024-01-30T08:36:56;11.13;;;7.20;;
11535;SDS011;5824;49.336;8.652;2024-01-30T08:39:22;12.10;;;7.83;;
11535;SDS011;5824;49.336;8.652;2024-01-30T08:41:48;12.57;;;7.43;;
11535;SDS011;5824;49.336;8.652;2024-01-30T08:44:13;13.40;;;7.57;;
11535;SDS011;5824;49.336;8.652;2024-01-30T08:46:39;12.30;;;7.30;;
11535;SDS011;5824;49.336;8.652;2024-01-30T08:49:05;11.57;;;7.60;;
11535;SDS011;5824;49.336;8.652;2024-01-30T08:51:30;11.27;;;7.10;;
11535;SDS011;5824;49.336;8.652;2024-01-30T08:53:56;11.50;;;7.40;;
11535;SDS011;5824;49.336;8.652;2024-01-30T08:56:21;12.13;;;7.40;;
11535;SDS011;5824;49.336;8.652;2024-01-30T08:58:47;13.13;;;7.40;;
11535;SDS011;5824;49.336;8.652;2024-01-30T09:01:13;15.27;;;7.07;;
11535;SDS011;5824;49.336;8.652;2024-01-30T09:03:39;12.17;;;7.23;;
11535;SDS011;5824;49.336;8.652;2024-01-30T09:06:09;11.13;;;7.80;;
11535;SDS011;5824;49.336;8.652;2024-01-30T09:08:35;12.97;;;8.77;;
11535;SDS011;5824;49.336;8.652;2024-01-30T09:11:00;11.00;;;7.47;;
11535;SDS011;5824;49.336;8.652;2024-01-30T09:13:26;14.27;;;8.07;;
11535;SDS011;5824;49.336;8.652;2024-01-30T09:15:51;10.93;;;7.20;;
11535;SDS011;5824;49.336;8.652;2024-01-30T09:18:18;12.30;;;7.63;;
11535;SDS011;5824;49.336;8.652;2024-01-30T09:20:43;12.40;;;7.40;;
11535;SDS011;5824;49.336;8.652;2024-01-30T09:23:12;11.57;;;8.17;;
11535;SDS011;5824;49.336;8.652;2024-01-30T09:25:37;12.13;;;8.07;;
11535;SDS011;5824;49.336;8.652;2024-01-30T09:28:03;12.50;;;7.60;;
11535;SDS011;5824;49.336;8.652;2024-01-30T09:30:29;13.37;;;8.57;;
11535;SDS011;5824;49.336;8.652;2024-01-30T09:32:55;13.33;;;7.90;;
11535;SDS011;5824;49.336;8.652;2024-01-30T09:35:20;11.60;;;7.97;;
11535;SDS011;5824;49.336;8.652;2024-01-30T09:37:46;12.87;;;7.97;;
11535;SDS011;5824;49.336;8.652;2024-01-30T09:40:11;12.60;;;8.90;;
11535;SDS011;5824;49.336;8.652;2024-01-30T09:42:37;13.67;;;8.27;;
11535;SDS011;5824;49.336;8.652;2024-01-30T09:45:03;17.23;;;8.33;;
11535;SDS011;5824;49.336;8.652;2024-01-30T09:47:33;11.23;;;7.83;;
11535;SDS011;5824;49.336;8.652;2024-01-30T09:50:08;13.83;;;8.20;;
11535;SDS011;5824;49.336;8.652;2024-01-30T09:52:34;12.70;;;7.57;;
11535;SDS011;5824;49.336;8.652;2024-01-30T09:55:00;10.60;;;7.90;;
11535;SDS011;5824;49.336;8.652;2024-01-30T09:57:26;11.27;;;7.73;;
11535;SDS011;5824;49.336;8.652;2024-01-30T09:59:52;12.47;;;8.13;;
11535;SDS011;5824;49.336;8.652;2024-01-30T10:02:19;14.20;;;8.43;;
11535;SDS011;5824;49.336;8.652;2024-01-30T10:04:51;10.80;;;7.67;;
11535;SDS011;5824;49.336;8.652;2024-01-30T10:07:17;12.67;;;8.20;;
11535;SDS011;5824;49.336;8.652;2024-01-30T10:09:44;12.40;;;7.87;;
11535;SDS011;5824;49.336;8.652;2024-01-30T10:12:10;13.73;;;8.03;;
11535;SDS011;5824;49.336;8.652;2024-01-30T10:14:39;13.27;;;8.57;;
11535;SDS011;5824;49.336;8.652;2024-01-30T10:17:05;12.23;;;7.60;;
11535;SDS011;5824;49.336;8.652;2024-01-30T10:19:32;11.93;;;7.33;;
11535;SDS011;5824;49.336;8.652;2024-01-30T10:21:59;15.10;;;8.60;;
11535;SDS011;5824;49.336;8.652;2024-01-30T10:24:25;11.93;;;8.13;;
11535;SDS011;5824;49.336;8.652;2024-01-30T10:26:51;10.77;;;7.00;;
11535;SDS011;5824;49.336;8.652;2024-01-30T10:29:18;12.70;;;7.43;;
11535;SDS011;5824;49.336;8.652;2024-01-30T10:31:43;10.60;;;7.60;;
11535;SDS011;5824;49.336;8.652;2024-01-30T10:34:09;10.30;;;7.67;;
11535;SDS011;5824;49.336;8.652;2024-01-30T10:36:37;10.70;;;7.50;;
11535;SDS011;5824;49.336;8.652;2024-01-30T10:39:08;12.67;;;7.97;;
11535;SDS011;5824;49.336;8.652;2024-01-30T10:41:36;15.00;;;7.73;;
11535;SDS011;5824;49.336;8.652;2024-01-30T10:44:08;17.50;;;8.03;;
11535;SDS011;5824;49.336;8.652;2024-01-30T10:46:35;12.57;;;8.00;;
11535;SDS011;5824;49.336;8.652;2024-01-30T10:49:03;10.80;;;7.40;;
11535;SDS011;5824;49.336;8.652;2024-01-30T10:51:29;11.40;;;7.40;;
11535;SDS011;5824;49.336;8.652;2024-01-30T10:53:56;11.87;;;7.67;;
11535;SDS011;5824;49.336;8.652;2024-01-30T10:56:23;11.53;;;7.90;;
11535;SDS011;5824;49.336;8.652;2024-01-30T10:58:52;11.20;;;7.50;;
11535;SDS011;5824;49.336;8.652;2024-01-30T11:01:22;11.23;;;7.67;;
11535;SDS011;5824;49.336;8.652;2024-01-30T11:03:49;13.10;;;8.30;;
11535;SDS011;5824;49.336;8.652;2024-01-30T11:06:16;13.43;;;7.27;;
11535;SDS011;5824;49.336;8.652;2024-01-30T11:08:45;12.40;;;7.30;;
11535;SDS011;5824;49.336;8.652;2024-01-30T11:11:11;10.93;;;7.30;;
11535;SDS011;5824;49.336;8.652;2024-01-30T11:13:36;14.13;;;8.40;;
11535;SDS011;5824;49.336;8.652;2024-01-30T11:16:02;11.47;;;8.10;;
11535;SDS011;5824;49.336;8.652;2024-01-30T11:18:29;12.17;;;8.57;;
11535;SDS011;5824;49.336;8.652;2024-01-30T11:20:56;15.13;;;7.80;;
11535;SDS011;5824;49.336;8.652;2024-01-30T11:23:29;14.13;;;7.50;;
11535;SDS011;5824;49.336;8.652;2024-01-30T11:25:54;12.60;;;7.80;;
11535;SDS011;5824;49.336;8.652;2024-01-30T11:28:21;13.70;;;9.00;;
11535;SDS011;5824;49.336;8.652;2024-01-30T11:30:48;12.00;;;8.63;;
11535;SDS011;5824;49.336;8.652;2024-01-30T11:33:15;14.73;;;8.87;;
11535;SDS011;5824;49.336;8.652;2024-01-30T11:35:52;18.13;;;8.77;;
11535;SDS011;5824;49.336;8.652;2024-01-30T11:38:18;11.97;;;8.83;;
11535;SDS011;5824;49.336;8.652;2024-01-30T11:40:43;14.40;;;8.77;;
11535;SDS011;5824;49.336;8.652;2024-01-30T11:43:09;15.30;;;9.03;;
11535;SDS011;5824;49.336;8.652;2024-01-30T11:45:35;12.60;;;8.40;;
11535;SDS011;5824;49.336;8.652;2024-01-30T11:48:01;13.50;;;8.43;;
11535;SDS011;5824;49.336;8.652;2024-01-30T11:50:32;13.40;;;7.90;;
11535;SDS011;5824;49.336;8.652;2024-01-30T11:53:02;13.67;;;9.10;;
11535;SDS011;5824;49.336;8.652;2024-01-30T11:55:28;12.60;;;8.23;;
11535;SDS011;5824;49.336;8.652;2024-01-30T11:57:55;15.37;;;9.63;;
11535;SDS011;5824;49.336;8.652;2024-01-30T12:00:24;12.23;;;8.77;;
11535;SDS011;5824;49.336;8.652;2024-01-30T12:02:50;14.07;;;8.70;;
11535;SDS011;5824;49.336;8.652;2024-01-30T12:05:20;15.23;;;9.17;;
11535;SDS011;5824;49.336;8.652;2024-01-30T12:07:46;16.00;;;8.93;;
11535;SDS011;5824;49.336;8.652;2024-01-30T12:10:12;14.73;;;8.80;;
11535;SDS011;5824;49.336;8.652;2024-01-30T12:12:42;12.23;;;8.10;;
11535;SDS011;5824;49.336;8.652;2024-01-30T12:15:10;14.83;;;8.80;;
11535;SDS011;5824;49.336;8.652;2024-01-30T12:17:36;11.80;;;8.20;;
11535;SDS011;5824;49.336;8.652;2024-01-30T12:20:02;10.70;;;7.63;;
11535;SDS011;5824;49.336;8.652;2024-01-30T12:22:38;12.30;;;8.27;;
11535;SDS011;5824;49.336;8.652;2024-01-30T12:25:16;16.80;;;8.70;;
11535;SDS011;5824;49.336;8.652;2024-01-30T12:27:43;13.87;;;9.00;;
11535;SDS011;5824;49.336;8.652;2024-01-30T12:30:10;17.40;;;8.90;;
11535;SDS011;5824;49.336;8.652;2024-01-30T12:32:42;15.00;;;7.90;;
11535;SDS011;5824;49.336;8.652;2024-01-30T12:35:09;15.73;;;8.17;;
11535;SDS011;5824;49.336;8.652;2024-01-30T12:37:39;13.60;;;8.17;;
11535;SDS011;5824;49.336;8.652;2024-01-30T12:40:05;13.97;;;8.20;;
11535;SDS011;5824;49.336;8.652;2024-01-30T12:42:33;14.33;;;7.83;;
11535;SDS011;5824;49.336;8.652;2024-01-30T12:44:59;13.00;;;7.80;;
11535;SDS011;5824;49.336;8.652;2024-01-30T12:47:24;11.33;;;8.07;;
11535;SDS011;5824;49.336;8.652;2024-01-30T12:49:50;10.70;;;7.37;;
11535;SDS011;5824;49.336;8.652;2024-01-30T12:52:19;14.60;;;7.90;;
11535;SDS011;5824;49.336;8.652;2024-01-30T12:54:46;14.27;;;8.93;;
11535;SDS011;5824;49.336;8.652;2024-01-30T12:57:12;13.20;;;7.87;;
11535;SDS011;5824;49.336;8.652;2024-01-30T12:59:37;15.53;;;7.60;;
11535;SDS011;5824;49.336;8.652;2024-01-30T13:02:04;13.80;;;7.63;;
11535;SDS011;5824;49.336;8.652;2024-01-30T13:04:29;14.60;;;9.00;;
11535;SDS011;5824;49.336;8.652;2024-01-30T13:06:55;13.53;;;8.10;;
11535;SDS011;5824;49.336;8.652;2024-01-30T13:09:21;13.20;;;8.73;;
11535;SDS011;5824;49.336;8.652;2024-01-30T13:11:47;12.33;;;8.07;;
11535;SDS011;5824;49.336;8.652;2024-01-30T13:14:14;12.23;;;8.40;;
11535;SDS011;5824;49.336;8.652;2024-01-30T13:16:39;13.03;;;8.10;;
11535;SDS011;5824;49.336;8.652;2024-01-30T13:19:05;11.57;;;8.27;;
11535;SDS011;5824;49.336;8.652;2024-01-30T13:21:31;19.10;;;8.90;;
11535;SDS011;5824;49.336;8.652;2024-01-30T13:23:56;12.90;;;8.93;;
11535;SDS011;5824;49.336;8.652;2024-01-30T13:26:22;12.13;;;7.90;;
11535;SDS011;5824;49.336;8.652;2024-01-30T13:28:47;13.30;;;8.80;;
11535;SDS011;5824;49.336;8.652;2024-01-30T13:31:13;15.53;;;9.93;;
11535;SDS011;5824;49.336;8.652;2024-01-30T13:33:39;13.23;;;8.47;;
11535;SDS011;5824;49.336;8.652;2024-01-30T13:36:05;13.83;;;8.53;;
11535;SDS011;5824;49.336;8.652;2024-01-30T13:38:32;13.60;;;8.87;;
11535;SDS011;5824;49.336;8.652;2024-01-30T13:40:58;19.80;;;9.20;;
11535;SDS011;5824;49.336;8.652;2024-01-30T13:43:24;14.53;;;8.77;;
11535;SDS011;5824;49.336;8.652;2024-01-30T13:45:49;14.50;;;8.50;;
11535;SDS011;5824;49.336;8.652;2024-01-30T13:48:15;17.20;;;9.20;;
11535;SDS011;5824;49.336;8.652;2024-01-30T13:50:40;13.03;;;8.37;;
11535;SDS011;5824;49.336;8.652;2024-01-30T13:53:06;18.00;;;8.37;;
11535;SDS011;5824;49.336;8.652;2024-01-30T13:55:31;23.53;;;8.60;;
11535;SDS011;5824;49.336;8.652;2024-01-30T13:57:57;13.87;;;8.47;;
11535;SDS011;5824;49.336;8.652;2024-01-30T14:00:22;12.50;;;7.97;;
11535;SDS011;5824;49.336;8.652;2024-01-30T14:02:50;11.40;;;7.90;;
11535;SDS011;5824;49.336;8.652;2024-01-30T14:05:15;12.00;;;8.33;;
11535;SDS011;5824;49.336;8.652;2024-01-30T14:07:41;15.00;;;8.80;;
11535;SDS011;5824;49.336;8.652;2024-01-30T14:10:09;13.40;;;8.80;;
11535;SDS011;5824;49.336;8.652;2024-01-30T14:12:36;13.53;;;8.60;;
11535;SDS011;5824;49.336;8.652;2024-01-30T14:15:01;14.53;;;9.10;;
11535;SDS011;5824;49.336;8.652;2024-01-30T14:17:27;14.30;;;9.07;;
11535;SDS011;5824;49.336;8.652;2024-01-30T14:19:52;13.10;;;8.47;;
11535;SDS011;5824;49.336;8.652;2024-01-30T14:22:18;12.40;;;8.30;;
11535;SDS011;5824;49.336;8.652;2024-01-30T14:24:43;12.80;;;8.00;;
11535;SDS011;5824;49.336;8.652;2024-01-30T14:27:09;12.83;;;8.10;;
11535;SDS011;5824;49.336;8.652;2024-01-30T14:29:35;12.93;;;8.00;;
11535;SDS011;5824;49.336;8.652;2024-01-30T14:32:01;16.73;;;8.10;;
11535;SDS011;5824;49.336;8.652;2024-01-30T14:34:27;11.37;;;8.37;;
11535;SDS011;5824;49.336;8.652;2024-01-30T14:36:52;13.27;;;8.00;;
11535;SDS011;5824;49.336;8.652;2024-01-30T14:39:18;10.40;;;6.63;;
11535;SDS011;5824;49.336;8.652;2024-01-30T14:41:44;10.13;;;5.80;;